To NAV CANADA Home Page Login to a new session Search on AWWS site Disclaimer Vers la page française équivalente Tips FAQ What's new on the site To the Forecasts and Observations / NOTAM section To "File a Flight Plan" website Publications and other links Update of the User's profile FIC Telephone Numbers My Weather Data Folder Route Weather Data Regional Weather Data Local Weather Data To the Forecasts and Observations / NOTAM section
Request Generated 08/12/2020 at 01:47:26 UTC . Weather information available at that time is displayed.

METAR/TAF

TORONTO/LESTER B. PEARSON INTL/ON    

METAR CYYZ 120100Z 31010KT 15SM FEW250 24/11 A2993 RMK CI1 SLP136 DENSITY ALT 1700FT=
METAR CYYZ 120000Z 30014KT 15SM FEW250 25/12 A2991 RMK CI1 SLP128 DENSITY ALT 1900FT=
METAR CYYZ 112300Z 32014KT 15SM FEW050 FEW250 27/15 A2990 RMK CU1CI1 CU TR SLP123 DENSITY ALT 2100FT=

TAF CYYZ 112339Z 1200/1306 32012KT P6SM FEW040
BECMG 1212/1214 18008KT
BECMG 1300/1302 01006KT
RMK NXT FCST BY 120300Z=

KITCHENER/WATERLOO/ON    (show WxCam)

SPECI CYKF 120102Z AUTO 30004KT 9SM CLR 18/13 A2998 RMK SLP150 DENSITY ALT 1500FT=
METAR CYKF 120100Z AUTO 30004KT 9SM -RA CLR 18/13 A2998 RMK SLP150 DENSITY ALT 1500FT=
SPECI CYKF 120050Z AUTO 29004KT 9SM -RA CLR 19/13 A2998 RMK SLP149 DENSITY ALT 1600FT=
METAR CYKF 120000Z AUTO 31008KT 9SM CLR 21/12 A2996 RMK SLP141 DENSITY ALT 1900FT=
METAR CYKF 112300Z AUTO 32009KT 9SM CLR 24/12 A2995 RMK SLP137 DENSITY ALT 2200FT=

TAF CYKF 120138Z 1202/1214 31007KT P6SM SKC
BECMG 1211/1213 VRB03KT
RMK FCST BASED ON AUTO OBS. NXT FCST BY 120800Z=

TORONTO/BILLY BISHOP TORONTO CITY AIRPORT/ON    (show WxCam)

METAR CYTZ 120100Z AUTO 32008G15KT 9SM CLR 25/12 A2992 RMK SLP131 DENSITY ALT 1400FT=
METAR CYTZ 120000Z AUTO 31011G16KT 9SM CLR 26/14 A2989 RMK SLP122 DENSITY ALT 1600FT=
METAR CYTZ 112300Z AUTO 30010G17KT 9SM FEW045 28/18 A2988 RMK SLP118 DENSITY ALT 1700FT=

TAF CYTZ 120138Z 1202/1302 32008KT P6SM FEW040
BECMG 1212/1214 19005KT
BECMG 1300/1302 VRB03KT
RMK FCST BASED ON AUTO OBS. NXT FCST BY 120800Z=

HAMILTON/ON    

METAR CYHM 120100Z 30004KT 15SM FEW040 SCT250 22/13 A2996 RMK CU1CI3 SLP144 DENSITY ALT 1800FT=
METAR CYHM 120000Z 27005KT 15SM FEW038 SCT250 24/17 A2993 RMK CU1CI3 SLP135 DENSITY ALT 2000FT=
METAR CYHM 112300Z 30010KT 15SM FEW034 SCT250 25/18 A2992 RMK CU2CI2 SLP129 DENSITY ALT 2200FT=

TAF CYHM 112339Z 1200/1224 30010KT P6SM FEW030
FM120100 33006KT P6SM FEW050
BECMG 1214/1216 04005KT
RMK NXT FCST BY 120600Z=

BORDEN/ON    

METAR CYBN 120100Z AUTO 27003KT 9SM CLR 17/12 A2995 RMK SLP142=
METAR CYBN 120000Z AUTO 30004KT 9SM CLR 22/11 A2993 RMK SLP134=
METAR CYBN 112300Z AUTO 31004KT 270V030 9SM CLR 25/13 A2992 RMK SLP131=

TAF CYBN 112330Z 1200/1212 30005KT P6SM SKC
BECMG 1202/1204 VRB03KT
RMK FCST BASED ON AUTO OBS. NXT FCST BY 120600Z=

LONDON/ON    

METAR CYXU 120100Z VRB02KT 15SM FEW240 19/13 A2999 RMK CI2 SLP153 DENSITY ALT 1600FT=
METAR CYXU 120000Z 33006KT 15SM FEW240 22/13 A2997 RMK CI2 SLP148 DENSITY ALT 1900FT=
METAR CYXU 112300Z 31006KT 15SM FEW240 24/11 A2995 RMK CI1 CI TR SLP141 DENSITY ALT 2200FT=

TAF CYXU 112339Z 1200/1224 31007KT P6SM FEW240
BECMG 1200/1202 VRB03KT
RMK NXT FCST BY 120600Z=

TORONTO/BUTTONVILLE MUNICIPAL/ON    

LWIS CYKZ 120100Z AUTO 31007KT 23/11 A2994=
LWIS CYKZ 120000Z AUTO 31013G20KT 25/12 A2992=
LWIS CYKZ 112300Z AUTO 31015KT 270V330 26/17 A2990=

CYKZ - No TAF is issued for this station

Your time UTC time
Weather data provided by Environment Canada and NAV CANADA